Terminal Aerodrome Forecast
Issued by NWS

Home | Current Version | Previous Version | Text Only | Print | Product List | Glossary Off
Versions: 1 2 3 4 5 6 7 8 9 10 11 12 13 14 15

797
FTUS43 KMPX 070538
TAFRWF
TAF
KRWF 070538Z 0706/0806 24015KT P6SM BKN120
     FM070900 28017G24KT P6SM BKN120
     FM072100 32024G36KT 3SM -SHSN BLSN OVC020
     FM080300 32026G45KT 3/4SM -SHSN BLSN OVC010=

USA.gov is the U.S. government's official web portal to all federal, state and local government web resources and services.